sensor_id;sensor_type;location;lat;lon;timestamp;P1;durP1;ratioP1;P2;durP2;ratioP2
80322;SDS011;69636;52.372;13.610;2024-02-26T00:02:24;14.18;;;11.82;;
80322;SDS011;69636;52.372;13.610;2024-02-26T00:04:52;14.00;;;10.95;;
80322;SDS011;69636;52.372;13.610;2024-02-26T00:07:19;11.23;;;9.90;;
80322;SDS011;69636;52.372;13.610;2024-02-26T00:09:46;13.18;;;11.95;;
80322;SDS011;69636;52.372;13.610;2024-02-26T00:12:14;13.80;;;12.25;;
80322;SDS011;69636;52.372;13.610;2024-02-26T00:14:41;11.82;;;10.60;;
80322;SDS011;69636;52.372;13.610;2024-02-26T00:17:09;12.30;;;10.63;;
80322;SDS011;69636;52.372;13.610;2024-02-26T00:19:37;11.13;;;9.52;;
80322;SDS011;69636;52.372;13.610;2024-02-26T00:22:05;10.32;;;9.25;;
80322;SDS011;69636;52.372;13.610;2024-02-26T00:24:32;12.23;;;10.32;;
80322;SDS011;69636;52.372;13.610;2024-02-26T00:26:59;10.85;;;9.10;;
80322;SDS011;69636;52.372;13.610;2024-02-26T00:29:27;11.27;;;10.18;;
80322;SDS011;69636;52.372;13.610;2024-02-26T00:31:54;10.80;;;9.77;;
80322;SDS011;69636;52.372;13.610;2024-02-26T00:34:21;11.40;;;8.57;;
80322;SDS011;69636;52.372;13.610;2024-02-26T00:36:50;10.23;;;8.60;;
80322;SDS011;69636;52.372;13.610;2024-02-26T00:39:18;10.70;;;9.18;;
80322;SDS011;69636;52.372;13.610;2024-02-26T00:41:45;11.05;;;8.65;;
80322;SDS011;69636;52.372;13.610;2024-02-26T00:44:12;11.93;;;10.73;;
80322;SDS011;69636;52.372;13.610;2024-02-26T00:46:40;10.25;;;9.10;;
80322;SDS011;69636;52.372;13.610;2024-02-26T00:49:07;11.80;;;9.40;;
80322;SDS011;69636;52.372;13.610;2024-02-26T00:51:35;9.85;;;8.45;;
80322;SDS011;69636;52.372;13.610;2024-02-26T00:54:04;10.07;;;9.05;;
80322;SDS011;69636;52.372;13.610;2024-02-26T00:56:31;9.60;;;8.23;;
80322;SDS011;69636;52.372;13.610;2024-02-26T00:58:59;9.90;;;8.90;;
80322;SDS011;69636;52.372;13.610;2024-02-26T01:01:26;10.27;;;8.32;;
80322;SDS011;69636;52.372;13.610;2024-02-26T01:03:53;11.80;;;10.68;;
80322;SDS011;69636;52.372;13.610;2024-02-26T01:06:22;11.30;;;10.15;;
80322;SDS011;69636;52.372;13.610;2024-02-26T01:11:18;9.50;;;7.80;;
80322;SDS011;69636;52.372;13.610;2024-02-26T01:13:45;10.13;;;9.07;;
80322;SDS011;69636;52.372;13.610;2024-02-26T01:16:13;12.45;;;11.35;;
80322;SDS011;69636;52.372;13.610;2024-02-26T01:18:40;12.65;;;11.63;;
80322;SDS011;69636;52.372;13.610;2024-02-26T01:21:07;11.15;;;10.02;;
80322;SDS011;69636;52.372;13.610;2024-02-26T01:23:35;12.55;;;11.40;;
80322;SDS011;69636;52.372;13.610;2024-02-26T01:26:02;10.85;;;8.88;;
80322;SDS011;69636;52.372;13.610;2024-02-26T01:28:31;11.55;;;10.02;;
80322;SDS011;69636;52.372;13.610;2024-02-26T01:33:26;12.45;;;11.32;;
80322;SDS011;69636;52.372;13.610;2024-02-26T01:35:53;10.93;;;8.35;;
80322;SDS011;69636;52.372;13.610;2024-02-26T01:38:21;11.60;;;10.50;;
80322;SDS011;69636;52.372;13.610;2024-02-26T01:40:48;11.00;;;9.95;;
80322;SDS011;69636;52.372;13.610;2024-02-26T01:43:15;14.48;;;13.27;;
80322;SDS011;69636;52.372;13.610;2024-02-26T01:45:44;10.75;;;9.50;;
80322;SDS011;69636;52.372;13.610;2024-02-26T01:50:39;8.60;;;7.07;;
80322;SDS011;69636;52.372;13.610;2024-02-26T01:53:07;10.15;;;9.05;;
80322;SDS011;69636;52.372;13.610;2024-02-26T01:55:37;11.98;;;10.05;;
80322;SDS011;69636;52.372;13.610;2024-02-26T01:58:04;10.65;;;8.02;;
80322;SDS011;69636;52.372;13.610;2024-02-26T02:00:32;11.27;;;10.18;;
80322;SDS011;69636;52.372;13.610;2024-02-26T02:03:01;12.10;;;10.93;;
80322;SDS011;69636;52.372;13.610;2024-02-26T02:05:29;9.88;;;8.70;;
80322;SDS011;69636;52.372;13.610;2024-02-26T02:07:57;12.35;;;11.20;;
80322;SDS011;69636;52.372;13.610;2024-02-26T02:10:26;10.75;;;9.43;;
80322;SDS011;69636;52.372;13.610;2024-02-26T02:12:53;11.65;;;9.60;;
80322;SDS011;69636;52.372;13.610;2024-02-26T02:15:21;11.18;;;9.40;;
80322;SDS011;69636;52.372;13.610;2024-02-26T02:17:48;10.50;;;8.73;;
80322;SDS011;69636;52.372;13.610;2024-02-26T02:20:17;9.68;;;8.57;;
80322;SDS011;69636;52.372;13.610;2024-02-26T02:22:47;11.55;;;9.43;;
80322;SDS011;69636;52.372;13.610;2024-02-26T02:27:41;11.23;;;9.02;;
80322;SDS011;69636;52.372;13.610;2024-02-26T02:30:10;11.95;;;9.82;;
80322;SDS011;69636;52.372;13.610;2024-02-26T02:32:39;10.65;;;9.65;;
80322;SDS011;69636;52.372;13.610;2024-02-26T02:35:07;12.68;;;11.50;;
80322;SDS011;69636;52.372;13.610;2024-02-26T02:37:34;11.30;;;8.98;;
80322;SDS011;69636;52.372;13.610;2024-02-26T02:40:04;10.38;;;9.07;;
80322;SDS011;69636;52.372;13.610;2024-02-26T02:42:32;14.70;;;13.38;;
80322;SDS011;69636;52.372;13.610;2024-02-26T02:44:59;10.57;;;9.48;;
80322;SDS011;69636;52.372;13.610;2024-02-26T02:47:27;11.07;;;9.98;;
80322;SDS011;69636;52.372;13.610;2024-02-26T02:49:54;13.27;;;11.13;;
80322;SDS011;69636;52.372;13.610;2024-02-26T02:52:22;11.20;;;10.10;;
80322;SDS011;69636;52.372;13.610;2024-02-26T02:54:49;10.38;;;8.60;;
80322;SDS011;69636;52.372;13.610;2024-02-26T02:57:18;8.63;;;7.78;;
80322;SDS011;69636;52.372;13.610;2024-02-26T02:59:46;8.60;;;7.70;;
80322;SDS011;69636;52.372;13.610;2024-02-26T03:02:13;8.98;;;8.07;;
80322;SDS011;69636;52.372;13.610;2024-02-26T03:04:40;10.85;;;8.95;;
80322;SDS011;69636;52.372;13.610;2024-02-26T03:07:08;10.60;;;9.50;;
80322;SDS011;69636;52.372;13.610;2024-02-26T03:09:35;10.48;;;9.25;;
80322;SDS011;69636;52.372;13.610;2024-02-26T03:12:03;10.98;;;10.07;;
80322;SDS011;69636;52.372;13.610;2024-02-26T03:14:32;11.20;;;10.20;;
80322;SDS011;69636;52.372;13.610;2024-02-26T03:16:59;11.88;;;8.57;;
80322;SDS011;69636;52.372;13.610;2024-02-26T03:19:26;10.38;;;8.88;;
80322;SDS011;69636;52.372;13.610;2024-02-26T03:21:54;9.23;;;7.72;;
80322;SDS011;69636;52.372;13.610;2024-02-26T03:24:21;9.48;;;7.40;;
80322;SDS011;69636;52.372;13.610;2024-02-26T03:26:49;10.00;;;8.75;;
80322;SDS011;69636;52.372;13.610;2024-02-26T03:29:16;9.20;;;8.30;;
80322;SDS011;69636;52.372;13.610;2024-02-26T03:31:45;9.40;;;8.40;;
80322;SDS011;69636;52.372;13.610;2024-02-26T03:34:12;9.15;;;8.05;;
80322;SDS011;69636;52.372;13.610;2024-02-26T03:36:40;9.50;;;8.45;;
80322;SDS011;69636;52.372;13.610;2024-02-26T03:39:07;8.98;;;8.02;;
80322;SDS011;69636;52.372;13.610;2024-02-26T03:41:35;8.48;;;7.40;;
80322;SDS011;69636;52.372;13.610;2024-02-26T03:44:02;9.38;;;7.78;;
80322;SDS011;69636;52.372;13.610;2024-02-26T03:46:30;9.02;;;8.15;;
80322;SDS011;69636;52.372;13.610;2024-02-26T03:48:59;9.10;;;8.25;;
80322;SDS011;69636;52.372;13.610;2024-02-26T03:51:26;10.48;;;9.65;;
80322;SDS011;69636;52.372;13.610;2024-02-26T03:53:54;7.97;;;6.85;;
80322;SDS011;69636;52.372;13.610;2024-02-26T03:56:21;10.60;;;9.27;;
80322;SDS011;69636;52.372;13.610;2024-02-26T03:58:48;9.07;;;7.82;;
80322;SDS011;69636;52.372;13.610;2024-02-26T04:01:16;16.67;;;15.48;;
80322;SDS011;69636;52.372;13.610;2024-02-26T04:03:43;9.27;;;8.38;;
80322;SDS011;69636;52.372;13.610;2024-02-26T04:06:12;9.18;;;7.90;;
80322;SDS011;69636;52.372;13.610;2024-02-26T04:08:39;13.90;;;12.80;;
80322;SDS011;69636;52.372;13.610;2024-02-26T04:11:08;9.90;;;8.20;;
80322;SDS011;69636;52.372;13.610;2024-02-26T04:13:36;9.30;;;8.23;;
80322;SDS011;69636;52.372;13.610;2024-02-26T04:16:03;8.63;;;7.50;;
80322;SDS011;69636;52.372;13.610;2024-02-26T04:18:31;8.65;;;7.18;;
80322;SDS011;69636;52.372;13.610;2024-02-26T04:20:58;9.63;;;8.68;;
80322;SDS011;69636;52.372;13.610;2024-02-26T04:23:27;9.93;;;8.93;;
80322;SDS011;69636;52.372;13.610;2024-02-26T04:28:21;9.05;;;8.23;;
80322;SDS011;69636;52.372;13.610;2024-02-26T04:30:49;9.70;;;6.38;;
80322;SDS011;69636;52.372;13.610;2024-02-26T04:33:16;9.95;;;9.07;;
80322;SDS011;69636;52.372;13.610;2024-02-26T04:35:44;10.00;;;9.05;;
80322;SDS011;69636;52.372;13.610;2024-02-26T04:38:11;12.23;;;10.98;;
80322;SDS011;69636;52.372;13.610;2024-02-26T04:40:40;11.50;;;8.27;;
80322;SDS011;69636;52.372;13.610;2024-02-26T04:43:08;11.48;;;10.40;;
80322;SDS011;69636;52.372;13.610;2024-02-26T04:45:35;9.95;;;8.85;;
80322;SDS011;69636;52.372;13.610;2024-02-26T04:48:02;8.80;;;7.55;;
80322;SDS011;69636;52.372;13.610;2024-02-26T04:50:30;10.05;;;8.23;;
80322;SDS011;69636;52.372;13.610;2024-02-26T04:52:57;9.15;;;7.88;;
80322;SDS011;69636;52.372;13.610;2024-02-26T04:55:25;10.98;;;9.45;;
80322;SDS011;69636;52.372;13.610;2024-02-26T04:57:53;10.40;;;9.30;;
80322;SDS011;69636;52.372;13.610;2024-02-26T05:02:48;10.70;;;9.60;;
80322;SDS011;69636;52.372;13.610;2024-02-26T05:05:16;12.38;;;11.15;;
80322;SDS011;69636;52.372;13.610;2024-02-26T05:07:43;10.32;;;9.05;;
80322;SDS011;69636;52.372;13.610;2024-02-26T05:10:10;10.65;;;8.90;;
80322;SDS011;69636;52.372;13.610;2024-02-26T05:12:38;11.52;;;10.32;;
80322;SDS011;69636;52.372;13.610;2024-02-26T05:15:07;13.15;;;11.52;;
80322;SDS011;69636;52.372;13.610;2024-02-26T05:17:35;13.13;;;11.80;;
80322;SDS011;69636;52.372;13.610;2024-02-26T05:20:02;12.27;;;10.98;;
80322;SDS011;69636;52.372;13.610;2024-02-26T05:22:30;10.73;;;9.70;;
80322;SDS011;69636;52.372;13.610;2024-02-26T05:24:58;12.70;;;11.20;;
80322;SDS011;69636;52.372;13.610;2024-02-26T05:27:25;10.90;;;8.95;;
80322;SDS011;69636;52.372;13.610;2024-02-26T05:29:52;10.63;;;8.70;;
80322;SDS011;69636;52.372;13.610;2024-02-26T05:32:21;10.20;;;7.50;;
80322;SDS011;69636;52.372;13.610;2024-02-26T05:34:49;10.48;;;8.95;;
80322;SDS011;69636;52.372;13.610;2024-02-26T05:37:16;10.70;;;8.73;;
80322;SDS011;69636;52.372;13.610;2024-02-26T05:39:43;14.93;;;12.75;;
80322;SDS011;69636;52.372;13.610;2024-02-26T05:42:11;13.00;;;10.52;;
80322;SDS011;69636;52.372;13.610;2024-02-26T05:44:38;12.45;;;10.85;;
80322;SDS011;69636;52.372;13.610;2024-02-26T05:47:05;10.95;;;9.45;;
80322;SDS011;69636;52.372;13.610;2024-02-26T05:49:35;12.23;;;10.93;;
80322;SDS011;69636;52.372;13.610;2024-02-26T05:52:02;11.35;;;10.10;;
80322;SDS011;69636;52.372;13.610;2024-02-26T05:54:30;14.00;;;11.68;;
80322;SDS011;69636;52.372;13.610;2024-02-26T05:56:57;12.20;;;10.50;;
80322;SDS011;69636;52.372;13.610;2024-02-26T05:59:25;14.73;;;11.77;;
80322;SDS011;69636;52.372;13.610;2024-02-26T06:01:52;11.57;;;9.77;;
80322;SDS011;69636;52.372;13.610;2024-02-26T06:04:20;13.82;;;10.25;;
80322;SDS011;69636;52.372;13.610;2024-02-26T06:06:48;13.73;;;12.30;;
80322;SDS011;69636;52.372;13.610;2024-02-26T06:09:16;13.15;;;10.38;;
80322;SDS011;69636;52.372;13.610;2024-02-26T06:11:43;13.40;;;10.60;;
80322;SDS011;69636;52.372;13.610;2024-02-26T06:14:11;12.88;;;10.90;;
80322;SDS011;69636;52.372;13.610;2024-02-26T06:16:38;13.13;;;10.57;;
80322;SDS011;69636;52.372;13.610;2024-02-26T06:19:05;13.73;;;9.95;;
80322;SDS011;69636;52.372;13.610;2024-02-26T06:21:36;12.93;;;10.00;;
80322;SDS011;69636;52.372;13.610;2024-02-26T06:24:05;16.70;;;13.20;;
80322;SDS011;69636;52.372;13.610;2024-02-26T06:26:32;13.82;;;10.15;;
80322;SDS011;69636;52.372;13.610;2024-02-26T06:28:59;15.95;;;12.65;;
80322;SDS011;69636;52.372;13.610;2024-02-26T06:31:27;13.60;;;11.75;;
80322;SDS011;69636;52.372;13.610;2024-02-26T06:33:54;13.05;;;10.85;;
80322;SDS011;69636;52.372;13.610;2024-02-26T06:36:22;15.05;;;12.73;;
80322;SDS011;69636;52.372;13.610;2024-02-26T06:38:51;16.48;;;12.35;;
80322;SDS011;69636;52.372;13.610;2024-02-26T06:41:20;14.80;;;11.88;;
80322;SDS011;69636;52.372;13.610;2024-02-26T06:43:47;15.80;;;12.48;;
80322;SDS011;69636;52.372;13.610;2024-02-26T06:46:14;16.88;;;11.70;;
80322;SDS011;69636;52.372;13.610;2024-02-26T06:48:42;15.57;;;11.57;;
80322;SDS011;69636;52.372;13.610;2024-02-26T06:51:09;14.80;;;11.80;;
80322;SDS011;69636;52.372;13.610;2024-02-26T06:53:37;16.00;;;12.25;;
80322;SDS011;69636;52.372;13.610;2024-02-26T06:56:04;14.75;;;12.25;;
80322;SDS011;69636;52.372;13.610;2024-02-26T06:58:33;17.00;;;12.43;;
80322;SDS011;69636;52.372;13.610;2024-02-26T07:01:01;15.32;;;13.70;;
80322;SDS011;69636;52.372;13.610;2024-02-26T07:03:28;13.95;;;10.80;;
80322;SDS011;69636;52.372;13.610;2024-02-26T07:05:56;21.52;;;14.40;;
80322;SDS011;69636;52.372;13.610;2024-02-26T07:08:23;43.38;;;25.17;;
80322;SDS011;69636;52.372;13.610;2024-02-26T07:10:51;35.28;;;23.25;;
80322;SDS011;69636;52.372;13.610;2024-02-26T07:13:18;21.88;;;15.68;;
80322;SDS011;69636;52.372;13.610;2024-02-26T07:15:47;17.25;;;12.02;;
80322;SDS011;69636;52.372;13.610;2024-02-26T07:18:14;15.35;;;12.90;;
80322;SDS011;69636;52.372;13.610;2024-02-26T07:20:42;17.08;;;13.07;;
80322;SDS011;69636;52.372;13.610;2024-02-26T07:23:09;17.83;;;13.82;;
80322;SDS011;69636;52.372;13.610;2024-02-26T07:25:36;27.00;;;23.83;;
80322;SDS011;69636;52.372;13.610;2024-02-26T07:28:04;16.70;;;12.70;;
80322;SDS011;69636;52.372;13.610;2024-02-26T07:30:31;18.77;;;16.10;;
80322;SDS011;69636;52.372;13.610;2024-02-26T07:33:00;16.38;;;12.52;;
80322;SDS011;69636;52.372;13.610;2024-02-26T07:35:27;15.95;;;13.02;;
80322;SDS011;69636;52.372;13.610;2024-02-26T07:37:55;16.27;;;13.38;;
80322;SDS011;69636;52.372;13.610;2024-02-26T07:40:22;17.88;;;16.08;;
80322;SDS011;69636;52.372;13.610;2024-02-26T07:42:49;17.65;;;12.40;;
80322;SDS011;69636;52.372;13.610;2024-02-26T07:45:17;18.40;;;16.50;;
80322;SDS011;69636;52.372;13.610;2024-02-26T07:47:44;16.98;;;13.48;;
80322;SDS011;69636;52.372;13.610;2024-02-26T07:50:13;16.88;;;13.07;;
80322;SDS011;69636;52.372;13.610;2024-02-26T07:52:41;15.43;;;12.60;;
80322;SDS011;69636;52.372;13.610;2024-02-26T07:55:08;17.50;;;13.20;;
80322;SDS011;69636;52.372;13.610;2024-02-26T07:57:35;18.95;;;12.32;;
80322;SDS011;69636;52.372;13.610;2024-02-26T08:00:03;18.58;;;13.25;;
80322;SDS011;69636;52.372;13.610;2024-02-26T08:02:31;17.75;;;12.52;;
80322;SDS011;69636;52.372;13.610;2024-02-26T08:04:59;18.17;;;12.80;;
80322;SDS011;69636;52.372;13.610;2024-02-26T08:07:27;17.50;;;12.50;;
80322;SDS011;69636;52.372;13.610;2024-02-26T08:09:55;19.48;;;12.70;;
80322;SDS011;69636;52.372;13.610;2024-02-26T08:12:22;19.85;;;12.75;;
80322;SDS011;69636;52.372;13.610;2024-02-26T08:14:50;17.98;;;13.35;;
80322;SDS011;69636;52.372;13.610;2024-02-26T08:17:17;18.48;;;12.65;;
80322;SDS011;69636;52.372;13.610;2024-02-26T08:19:44;17.23;;;13.82;;
80322;SDS011;69636;52.372;13.610;2024-02-26T08:22:12;19.45;;;14.52;;
80322;SDS011;69636;52.372;13.610;2024-02-26T08:24:41;19.65;;;14.00;;
80322;SDS011;69636;52.372;13.610;2024-02-26T08:27:08;20.38;;;14.35;;
80322;SDS011;69636;52.372;13.610;2024-02-26T08:29:36;19.45;;;15.30;;
80322;SDS011;69636;52.372;13.610;2024-02-26T08:32:03;18.60;;;13.23;;
80322;SDS011;69636;52.372;13.610;2024-02-26T08:34:31;19.52;;;15.00;;
80322;SDS011;69636;52.372;13.610;2024-02-26T08:36:59;19.70;;;13.10;;
80322;SDS011;69636;52.372;13.610;2024-02-26T08:39:26;19.70;;;14.68;;
80322;SDS011;69636;52.372;13.610;2024-02-26T08:41:55;20.10;;;14.63;;
80322;SDS011;69636;52.372;13.610;2024-02-26T08:44:22;19.33;;;13.88;;
80322;SDS011;69636;52.372;13.610;2024-02-26T08:46:49;19.80;;;13.93;;
80322;SDS011;69636;52.372;13.610;2024-02-26T08:49:17;18.40;;;13.95;;
80322;SDS011;69636;52.372;13.610;2024-02-26T08:51:45;18.65;;;13.50;;
80322;SDS011;69636;52.372;13.610;2024-02-26T08:54:12;17.65;;;14.57;;
80322;SDS011;69636;52.372;13.610;2024-02-26T08:56:40;20.05;;;15.35;;
80322;SDS011;69636;52.372;13.610;2024-02-26T08:59:08;16.52;;;13.95;;
80322;SDS011;69636;52.372;13.610;2024-02-26T09:01:36;17.80;;;15.43;;
80322;SDS011;69636;52.372;13.610;2024-02-26T09:04:03;18.52;;;14.70;;
80322;SDS011;69636;52.372;13.610;2024-02-26T09:06:31;22.17;;;13.50;;
80322;SDS011;69636;52.372;13.610;2024-02-26T09:08:58;18.38;;;14.15;;
80322;SDS011;69636;52.372;13.610;2024-02-26T09:11:28;16.70;;;12.82;;
80322;SDS011;69636;52.372;13.610;2024-02-26T09:13:55;19.45;;;13.30;;
80322;SDS011;69636;52.372;13.610;2024-02-26T09:16:24;19.08;;;12.48;;
80322;SDS011;69636;52.372;13.610;2024-02-26T09:18:51;17.27;;;13.55;;
80322;SDS011;69636;52.372;13.610;2024-02-26T09:21:19;17.80;;;11.85;;
80322;SDS011;69636;52.372;13.610;2024-02-26T09:23:46;16.48;;;12.15;;
80322;SDS011;69636;52.372;13.610;2024-02-26T09:26:14;18.95;;;14.00;;
80322;SDS011;69636;52.372;13.610;2024-02-26T09:28:41;16.98;;;11.25;;
80322;SDS011;69636;52.372;13.610;2024-02-26T09:31:09;16.08;;;12.82;;
80322;SDS011;69636;52.372;13.610;2024-02-26T09:33:38;16.48;;;12.48;;
80322;SDS011;69636;52.372;13.610;2024-02-26T09:36:05;15.60;;;11.52;;
80322;SDS011;69636;52.372;13.610;2024-02-26T09:38:33;14.50;;;11.05;;
80322;SDS011;69636;52.372;13.610;2024-02-26T09:41:15;13.65;;;11.07;;
80322;SDS011;69636;52.372;13.610;2024-02-26T09:43:44;15.35;;;10.65;;
80322;SDS011;69636;52.372;13.610;2024-02-26T09:46:12;14.27;;;11.25;;
80322;SDS011;69636;52.372;13.610;2024-02-26T09:48:40;14.32;;;11.05;;
80322;SDS011;69636;52.372;13.610;2024-02-26T09:51:09;16.58;;;11.52;;
80322;SDS011;69636;52.372;13.610;2024-02-26T09:53:38;12.85;;;9.45;;
80322;SDS011;69636;52.372;13.610;2024-02-26T09:56:09;13.70;;;8.95;;
80322;SDS011;69636;52.372;13.610;2024-02-26T09:58:38;14.35;;;10.63;;
80322;SDS011;69636;52.372;13.610;2024-02-26T10:01:09;12.45;;;10.90;;
80322;SDS011;69636;52.372;13.610;2024-02-26T10:03:39;12.60;;;9.38;;
80322;SDS011;69636;52.372;13.610;2024-02-26T10:06:08;13.85;;;10.02;;
80322;SDS011;69636;52.372;13.610;2024-02-26T10:08:36;11.70;;;8.75;;
80322;SDS011;69636;52.372;13.610;2024-02-26T10:11:04;13.93;;;8.73;;
80322;SDS011;69636;52.372;13.610;2024-02-26T10:13:33;13.45;;;9.70;;
80322;SDS011;69636;52.372;13.610;2024-02-26T10:16:01;13.63;;;8.95;;
80322;SDS011;69636;52.372;13.610;2024-02-26T10:21:19;13.00;;;9.32;;
80322;SDS011;69636;52.372;13.610;2024-02-26T10:23:47;10.43;;;8.20;;
80322;SDS011;69636;52.372;13.610;2024-02-26T10:26:15;10.45;;;8.02;;
80322;SDS011;69636;52.372;13.610;2024-02-26T10:28:43;11.35;;;8.13;;
80322;SDS011;69636;52.372;13.610;2024-02-26T10:31:13;11.80;;;8.25;;
80322;SDS011;69636;52.372;13.610;2024-02-26T10:33:41;11.60;;;8.55;;
80322;SDS011;69636;52.372;13.610;2024-02-26T10:36:11;11.13;;;7.80;;
80322;SDS011;69636;52.372;13.610;2024-02-26T10:38:39;10.27;;;7.50;;
80322;SDS011;69636;52.372;13.610;2024-02-26T10:41:06;9.75;;;6.85;;
80322;SDS011;69636;52.372;13.610;2024-02-26T10:43:34;11.27;;;8.07;;
80322;SDS011;69636;52.372;13.610;2024-02-26T10:46:01;10.77;;;8.77;;
80322;SDS011;69636;52.372;13.610;2024-02-26T10:48:29;10.15;;;7.32;;
80322;SDS011;69636;52.372;13.610;2024-02-26T10:50:56;10.52;;;7.82;;
80322;SDS011;69636;52.372;13.610;2024-02-26T10:53:28;9.18;;;6.68;;
80322;SDS011;69636;52.372;13.610;2024-02-26T10:55:57;10.30;;;7.15;;
80322;SDS011;69636;52.372;13.610;2024-02-26T10:58:28;9.32;;;8.10;;
80322;SDS011;69636;52.372;13.610;2024-02-26T11:00:56;8.75;;;6.15;;
80322;SDS011;69636;52.372;13.610;2024-02-26T11:03:24;8.88;;;6.07;;
80322;SDS011;69636;52.372;13.610;2024-02-26T11:05:53;10.27;;;6.38;;
80322;SDS011;69636;52.372;13.610;2024-02-26T11:08:21;8.02;;;5.80;;
80322;SDS011;69636;52.372;13.610;2024-02-26T11:10:52;7.97;;;5.68;;
80322;SDS011;69636;52.372;13.610;2024-02-26T11:13:21;8.63;;;6.03;;
80322;SDS011;69636;52.372;13.610;2024-02-26T11:15:48;8.63;;;6.32;;
80322;SDS011;69636;52.372;13.610;2024-02-26T11:18:18;8.43;;;5.75;;
80322;SDS011;69636;52.372;13.610;2024-02-26T11:20:46;8.43;;;5.80;;
80322;SDS011;69636;52.372;13.610;2024-02-26T11:23:16;8.98;;;6.57;;
80322;SDS011;69636;52.372;13.610;2024-02-26T11:25:43;12.07;;;7.50;;
80322;SDS011;69636;52.372;13.610;2024-02-26T11:28:12;8.82;;;5.72;;
80322;SDS011;69636;52.372;13.610;2024-02-26T11:30:43;10.10;;;6.90;;
80322;SDS011;69636;52.372;13.610;2024-02-26T11:33:13;8.13;;;5.60;;
80322;SDS011;69636;52.372;13.610;2024-02-26T11:35:42;9.50;;;5.80;;
80322;SDS011;69636;52.372;13.610;2024-02-26T11:38:16;9.75;;;6.80;;
80322;SDS011;69636;52.372;13.610;2024-02-26T11:40:44;9.05;;;6.10;;
80322;SDS011;69636;52.372;13.610;2024-02-26T11:43:13;9.82;;;5.75;;
80322;SDS011;69636;52.372;13.610;2024-02-26T11:45:50;6.95;;;5.38;;
80322;SDS011;69636;52.372;13.610;2024-02-26T11:48:21;7.88;;;6.03;;
80322;SDS011;69636;52.372;13.610;2024-02-26T11:50:50;7.03;;;5.50;;
80322;SDS011;69636;52.372;13.610;2024-02-26T11:53:25;6.88;;;5.10;;
80322;SDS011;69636;52.372;13.610;2024-02-26T11:58:41;7.57;;;5.13;;
80322;SDS011;69636;52.372;13.610;2024-02-26T12:04:04;6.55;;;4.60;;
80322;SDS011;69636;52.372;13.610;2024-02-26T12:06:39;9.23;;;5.20;;
80322;SDS011;69636;52.372;13.610;2024-02-26T12:09:09;8.10;;;6.18;;
80322;SDS011;69636;52.372;13.610;2024-02-26T12:11:39;7.80;;;4.88;;
80322;SDS011;69636;52.372;13.610;2024-02-26T12:14:10;7.97;;;5.43;;
80322;SDS011;69636;52.372;13.610;2024-02-26T12:16:38;6.88;;;4.95;;
80322;SDS011;69636;52.372;13.610;2024-02-26T12:21:34;8.52;;;5.38;;
80322;SDS011;69636;52.372;13.610;2024-02-26T12:24:11;11.50;;;8.10;;
80322;SDS011;69636;52.372;13.610;2024-02-26T12:26:40;8.35;;;5.95;;
80322;SDS011;69636;52.372;13.610;2024-02-26T12:29:07;8.73;;;5.38;;
80322;SDS011;69636;52.372;13.610;2024-02-26T12:31:36;9.13;;;6.70;;
80322;SDS011;69636;52.372;13.610;2024-02-26T12:34:04;9.00;;;5.85;;
80322;SDS011;69636;52.372;13.610;2024-02-26T12:36:33;8.20;;;6.15;;
80322;SDS011;69636;52.372;13.610;2024-02-26T12:41:28;8.02;;;5.50;;
80322;SDS011;69636;52.372;13.610;2024-02-26T12:43:55;8.05;;;5.25;;
80322;SDS011;69636;52.372;13.610;2024-02-26T12:46:25;9.35;;;5.97;;
80322;SDS011;69636;52.372;13.610;2024-02-26T12:48:54;7.70;;;5.65;;
80322;SDS011;69636;52.372;13.610;2024-02-26T12:51:23;8.23;;;7.03;;
80322;SDS011;69636;52.372;13.610;2024-02-26T12:53:51;11.00;;;6.13;;
80322;SDS011;69636;52.372;13.610;2024-02-26T12:56:19;8.13;;;5.55;;
80322;SDS011;69636;52.372;13.610;2024-02-26T12:58:48;8.93;;;5.93;;
80322;SDS011;69636;52.372;13.610;2024-02-26T13:01:17;8.13;;;6.63;;
80322;SDS011;69636;52.372;13.610;2024-02-26T13:03:51;9.63;;;7.40;;
80322;SDS011;69636;52.372;13.610;2024-02-26T13:06:20;8.95;;;6.43;;
80322;SDS011;69636;52.372;13.610;2024-02-26T13:08:48;8.95;;;6.60;;
80322;SDS011;69636;52.372;13.610;2024-02-26T13:11:16;8.90;;;6.75;;
80322;SDS011;69636;52.372;13.610;2024-02-26T13:13:47;10.70;;;6.82;;
80322;SDS011;69636;52.372;13.610;2024-02-26T13:16:15;9.48;;;7.03;;
80322;SDS011;69636;52.372;13.610;2024-02-26T13:18:42;11.30;;;9.25;;
80322;SDS011;69636;52.372;13.610;2024-02-26T13:21:12;11.30;;;8.00;;
80322;SDS011;69636;52.372;13.610;2024-02-26T13:23:41;11.95;;;8.10;;
80322;SDS011;69636;52.372;13.610;2024-02-26T13:26:11;10.95;;;8.68;;
80322;SDS011;69636;52.372;13.610;2024-02-26T13:28:39;11.48;;;7.28;;
80322;SDS011;69636;52.372;13.610;2024-02-26T13:31:06;12.00;;;8.48;;
80322;SDS011;69636;52.372;13.610;2024-02-26T13:33:35;12.95;;;10.02;;
80322;SDS011;69636;52.372;13.610;2024-02-26T13:36:03;13.10;;;9.63;;
80322;SDS011;69636;52.372;13.610;2024-02-26T13:38:32;12.20;;;9.32;;
80322;SDS011;69636;52.372;13.610;2024-02-26T13:41:00;12.95;;;9.43;;
80322;SDS011;69636;52.372;13.610;2024-02-26T13:43:27;12.75;;;10.18;;
80322;SDS011;69636;52.372;13.610;2024-02-26T13:45:55;16.70;;;11.00;;
80322;SDS011;69636;52.372;13.610;2024-02-26T13:48:22;13.35;;;10.80;;
80322;SDS011;69636;52.372;13.610;2024-02-26T13:50:50;13.38;;;11.43;;
80322;SDS011;69636;52.372;13.610;2024-02-26T13:53:17;14.82;;;10.63;;
80322;SDS011;69636;52.372;13.610;2024-02-26T13:55:46;15.90;;;10.70;;
80322;SDS011;69636;52.372;13.610;2024-02-26T13:58:13;18.02;;;11.43;;
80322;SDS011;69636;52.372;13.610;2024-02-26T14:00:41;14.13;;;10.82;;
80322;SDS011;69636;52.372;13.610;2024-02-26T14:03:10;15.95;;;10.88;;
80322;SDS011;69636;52.372;13.610;2024-02-26T14:05:38;16.92;;;11.23;;
80322;SDS011;69636;52.372;13.610;2024-02-26T14:08:05;19.20;;;12.48;;
80322;SDS011;69636;52.372;13.610;2024-02-26T14:10:33;16.27;;;11.25;;
80322;SDS011;69636;52.372;13.610;2024-02-26T14:13:02;19.38;;;11.55;;
80322;SDS011;69636;52.372;13.610;2024-02-26T14:15:29;14.93;;;11.43;;
80322;SDS011;69636;52.372;13.610;2024-02-26T14:17:59;17.65;;;13.32;;
80322;SDS011;69636;52.372;13.610;2024-02-26T14:20:26;16.23;;;12.63;;
80322;SDS011;69636;52.372;13.610;2024-02-26T14:22:54;16.38;;;11.77;;
80322;SDS011;69636;52.372;13.610;2024-02-26T14:25:21;16.65;;;14.35;;
80322;SDS011;69636;52.372;13.610;2024-02-26T14:27:49;17.58;;;13.55;;
80322;SDS011;69636;52.372;13.610;2024-02-26T14:30:17;19.65;;;13.55;;
80322;SDS011;69636;52.372;13.610;2024-02-26T14:32:45;17.45;;;12.88;;
80322;SDS011;69636;52.372;13.610;2024-02-26T14:35:12;15.05;;;12.20;;
80322;SDS011;69636;52.372;13.610;2024-02-26T14:37:43;17.80;;;13.00;;
80322;SDS011;69636;52.372;13.610;2024-02-26T14:40:14;17.38;;;11.90;;
80322;SDS011;69636;52.372;13.610;2024-02-26T14:42:41;15.73;;;11.75;;
80322;SDS011;69636;52.372;13.610;2024-02-26T14:45:09;15.13;;;11.13;;
80322;SDS011;69636;52.372;13.610;2024-02-26T14:47:38;17.85;;;12.55;;
80322;SDS011;69636;52.372;13.610;2024-02-26T14:50:06;19.45;;;13.23;;
80322;SDS011;69636;52.372;13.610;2024-02-26T14:52:34;17.35;;;12.50;;